23.2°F
Current conditions from King Hill
Updated every 5 minutes
 
  Saturday December 20, 2014

Station Historical Data
Daily Summary for April 26, 2012 Units:  Both    English   Metric
« Previous Day
Next Day »
Daily Weekly Monthly Yearly Custom
  High: Low: Average:
Temperature: 55.3 °F /  12.9 °C 33.4 °F /  0.8 °C 44.1 °F /  6.7 °C
Dew Point: 43.5 °F /  6.4 °C 27.5 °F /  -2.5 °C 34.6 °F /  1.4 °C
Humidity: 94% 35% 72%
Wind Speed: 11.0mph /  17.7km/h - 3.3mph /  5.3km/h
Wind Gust: 19.0mph /  30.6km/h - -
Wind- - SSW
Pressure: 29.85 in /  1010.7 hPa 29.50 in /  998.9 hPa -
Precipitation: 0.59 in /  15 mm    
Historical Graphs
 
 
Tabular Data for April 26, 2012
Time Temperature Dew Point Pressure Wind Wind Speed Wind Gust Humidity Daily Rainfall
00:05 39.6 °F /  4.2 °C 32.0 °F /  0 °C 29.84in /  1010.4hPa West 2.0mph /  3.2km/h 5.0mph /  8km/h 74% 0.00in /  0mm
00:15 39.8 °F /  4.3 °C 32.2 °F /  0.1 °C 29.84in /  1010.4hPa Calm   3.0mph /  4.8km/h 74% 0.00in /  0mm
00:19 39.8 °F /  4.3 °C 32.5 °F /  0.3 °C 29.84in /  1010.4hPa Calm   3.0mph /  4.8km/h 75% 0.00in /  0mm
00:24 39.7 °F /  4.3 °C 32.4 °F /  0.2 °C 29.84in /  1010.4hPa Calm   3.0mph /  4.8km/h 75% 0.00in /  0mm
00:29 39.7 °F /  4.3 °C 32.4 °F /  0.2 °C 29.84in /  1010.4hPa Calm   1.0mph /  1.6km/h 75% 0.00in /  0mm
00:34 39.7 °F /  4.3 °C 32.4 °F /  0.2 °C 29.84in /  1010.4hPa Calm   3.0mph /  4.8km/h 75% 0.00in /  0mm
00:39 39.6 °F /  4.2 °C 32.7 °F /  0.4 °C 29.84in /  1010.4hPa Calm   3.0mph /  4.8km/h 76% 0.00in /  0mm
00:44 39.5 °F /  4.2 °C 32.2 °F /  0.1 °C 29.84in /  1010.4hPa West 1.0mph /  1.6km/h 6.0mph /  9.7km/h 75% 0.00in /  0mm
00:49 39.6 °F /  4.2 °C 32.3 °F /  0.2 °C 29.84in /  1010.4hPa West 2.0mph /  3.2km/h 6.0mph /  9.7km/h 75% 0.00in /  0mm
00:54 39.6 °F /  4.2 °C 32.3 °F /  0.2 °C 29.84in /  1010.4hPa Calm   6.0mph /  9.7km/h 75% 0.00in /  0mm
00:59 39.6 °F /  4.2 °C 32.3 °F /  0.2 °C 29.84in /  1010.4hPa Calm   2.0mph /  3.2km/h 75% 0.00in /  0mm
01:04 39.6 °F /  4.2 °C 32.3 °F /  0.2 °C 29.84in /  1010.4hPa Calm   3.0mph /  4.8km/h 75% 0.00in /  0mm
01:09 39.6 °F /  4.2 °C 32.3 °F /  0.2 °C 29.84in /  1010.4hPa Calm   3.0mph /  4.8km/h 75% 0.00in /  0mm
01:14 39.5 °F /  4.2 °C 32.2 °F /  0.1 °C 29.84in /  1010.4hPa Calm     75% 0.00in /  0mm
01:19 39.4 °F /  4.1 °C 32.1 °F /  0.1 °C 29.83in /  1010hPa Calm     75% 0.00in /  0mm
01:24 39.4 °F /  4.1 °C 32.1 °F /  0.1 °C 29.83in /  1010hPa Calm     75% 0.00in /  0mm
01:29 39.4 °F /  4.1 °C 32.1 °F /  0.1 °C 29.83in /  1010hPa Calm     75% 0.00in /  0mm
01:34 39.3 °F /  4.1 °C 32.0 °F /  0 °C 29.83in /  1010hPa Calm     75% 0.00in /  0mm
01:39 39.3 °F /  4.1 °C 32.0 °F /  0 °C 29.83in /  1010hPa Calm     75% 0.00in /  0mm
01:44 39.2 °F /  4 °C 32.3 °F /  0.2 °C 29.83in /  1010hPa Calm     76% 0.00in /  0mm
01:49 39.1 °F /  3.9 °C 32.2 °F /  0.1 °C 29.83in /  1010hPa Calm     76% 0.00in /  0mm
01:54 39.1 °F /  3.9 °C 32.2 °F /  0.1 °C 29.83in /  1010hPa Calm   1.0mph /  1.6km/h 76% 0.00in /  0mm
01:59 39.0 °F /  3.9 °C 32.1 °F /  0.1 °C 29.83in /  1010hPa Calm   1.0mph /  1.6km/h 76% 0.00in /  0mm
02:04 38.9 °F /  3.8 °C 32.0 °F /  0 °C 29.83in /  1010hPa Calm     76% 0.00in /  0mm
02:09 38.7 °F /  3.7 °C 31.8 °F /  -0.1 °C 29.83in /  1010hPa Calm     76% 0.00in /  0mm
02:14 38.5 °F /  3.6 °C 31.9 °F /  -0.1 °C 29.83in /  1010hPa Calm     77% 0.00in /  0mm
02:19 38.2 °F /  3.4 °C 31.6 °F /  -0.2 °C 29.83in /  1010hPa Calm     77% 0.00in /  0mm
02:24 37.7 °F /  3.2 °C 31.5 °F /  -0.3 °C 29.83in /  1010hPa Calm   1.0mph /  1.6km/h 78% 0.00in /  0mm
02:29 37.5 °F /  3.1 °C 31.6 °F /  -0.2 °C 29.83in /  1010hPa Calm   1.0mph /  1.6km/h 79% 0.00in /  0mm
02:34 37.2 °F /  2.9 °C 31.3 °F /  -0.4 °C 29.83in /  1010hPa West 1.0mph /  1.6km/h 3.0mph /  4.8km/h 79% 0.00in /  0mm
02:39 36.9 °F /  2.7 °C 31.0 °F /  -0.6 °C 29.83in /  1010hPa Calm   3.0mph /  4.8km/h 79% 0.00in /  0mm
02:44 36.7 °F /  2.6 °C 31.1 °F /  -0.5 °C 29.83in /  1010hPa Calm   3.0mph /  4.8km/h 80% 0.00in /  0mm
02:49 36.8 °F /  2.7 °C 31.2 °F /  -0.4 °C 29.83in /  1010hPa Calm   3.0mph /  4.8km/h 80% 0.00in /  0mm
02:54 36.7 °F /  2.6 °C 31.1 °F /  -0.5 °C 29.83in /  1010hPa West 1.0mph /  1.6km/h 3.0mph /  4.8km/h 80% 0.00in /  0mm
02:59 36.7 °F /  2.6 °C 31.1 °F /  -0.5 °C 29.83in /  1010hPa Calm   3.0mph /  4.8km/h 80% 0.00in /  0mm
03:04 36.7 °F /  2.6 °C 31.1 °F /  -0.5 °C 29.83in /  1010hPa West 1.0mph /  1.6km/h 3.0mph /  4.8km/h 80% 0.00in /  0mm
03:09 37.0 °F /  2.8 °C 31.7 °F /  -0.2 °C 29.83in /  1010hPa Calm   4.0mph /  6.4km/h 81% 0.00in /  0mm
03:14 37.1 °F /  2.8 °C 31.5 °F /  -0.3 °C 29.83in /  1010hPa Calm   4.0mph /  6.4km/h 80% 0.00in /  0mm
03:19 37.1 °F /  2.8 °C 31.5 °F /  -0.3 °C 29.83in /  1010hPa Calm   2.0mph /  3.2km/h 80% 0.00in /  0mm
03:29 37.0 °F /  2.8 °C 31.4 °F /  -0.3 °C 29.83in /  1010hPa Calm   3.0mph /  4.8km/h 80% 0.00in /  0mm
03:34 36.7 °F /  2.6 °C 31.1 °F /  -0.5 °C 29.83in /  1010hPa Calm   3.0mph /  4.8km/h 80% 0.00in /  0mm
03:39 36.4 °F /  2.4 °C 31.1 °F /  -0.5 °C 29.83in /  1010hPa Calm     81% 0.00in /  0mm
03:44 36.2 °F /  2.3 °C 30.9 °F /  -0.6 °C 29.83in /  1010hPa Calm   3.0mph /  4.8km/h 81% 0.00in /  0mm
03:49 36.0 °F /  2.2 °C 30.7 °F /  -0.7 °C 29.83in /  1010hPa Calm   3.0mph /  4.8km/h 81% 0.00in /  0mm
03:54 35.8 °F /  2.1 °C 30.8 °F /  -0.7 °C 29.83in /  1010hPa Calm   3.0mph /  4.8km/h 82% 0.00in /  0mm
03:59 35.7 °F /  2.1 °C 30.8 °F /  -0.7 °C 29.83in /  1010hPa West 1.0mph /  1.6km/h 3.0mph /  4.8km/h 82% 0.00in /  0mm
04:04 35.6 °F /  2 °C 30.7 °F /  -0.7 °C 29.83in /  1010hPa Calm   3.0mph /  4.8km/h 82% 0.00in /  0mm
04:09 35.6 °F /  2 °C 30.7 °F /  -0.7 °C 29.83in /  1010hPa West 1.0mph /  1.6km/h 4.0mph /  6.4km/h 82% 0.00in /  0mm
04:14 35.5 °F /  1.9 °C 30.6 °F /  -0.8 °C 29.83in /  1010hPa Calm   4.0mph /  6.4km/h 82% 0.00in /  0mm
04:19 35.5 °F /  1.9 °C 30.6 °F /  -0.8 °C 29.83in /  1010hPa Calm   3.0mph /  4.8km/h 82% 0.00in /  0mm
04:24 35.3 °F /  1.8 °C 30.4 °F /  -0.9 °C 29.83in /  1010hPa Calm   3.0mph /  4.8km/h 82% 0.00in /  0mm
04:29 35.2 °F /  1.8 °C 30.6 °F /  -0.8 °C 29.83in /  1010hPa Calm   2.0mph /  3.2km/h 83% 0.00in /  0mm
04:34 35.1 °F /  1.7 °C 30.5 °F /  -0.8 °C 29.83in /  1010hPa Calm     83% 0.00in /  0mm
04:39 35.0 °F /  1.7 °C 30.4 °F /  -0.9 °C 29.83in /  1010hPa Calm     83% 0.00in /  0mm
04:44 35.0 °F /  1.7 °C 30.4 °F /  -0.9 °C 29.83in /  1010hPa Calm     83% 0.00in /  0mm
04:49 34.8 °F /  1.6 °C 30.2 °F /  -1 °C 29.83in /  1010hPa Calm     83% 0.00in /  0mm
04:54 34.4 °F /  1.3 °C 29.8 °F /  -1.2 °C 29.83in /  1010hPa Calm     83% 0.00in /  0mm
04:59 34.4 °F /  1.3 °C 30.1 °F /  -1.1 °C 29.83in /  1010hPa Calm     84% 0.00in /  0mm
05:04 34.4 °F /  1.3 °C 30.1 °F /  -1.1 °C 29.83in /  1010hPa Calm     84% 0.00in /  0mm
05:09 34.4 °F /  1.3 °C 30.1 °F /  -1.1 °C 29.83in /  1010hPa Calm     84% 0.00in /  0mm
05:14 34.2 °F /  1.2 °C 29.9 °F /  -1.2 °C 29.83in /  1010hPa Calm     84% 0.00in /  0mm
05:19 34.1 °F /  1.2 °C 29.8 °F /  -1.2 °C 29.83in /  1010hPa Calm     84% 0.00in /  0mm
05:24 34.4 °F /  1.3 °C 30.4 °F /  -0.9 °C 29.83in /  1010hPa Calm     85% 0.00in /  0mm
05:29 34.3 °F /  1.3 °C 30.0 °F /  -1.1 °C 29.83in /  1010hPa Calm     84% 0.00in /  0mm
05:34 34.3 °F /  1.3 °C 30.0 °F /  -1.1 °C 29.83in /  1010hPa Calm     84% 0.00in /  0mm
05:39 33.9 °F /  1.1 °C 29.6 °F /  -1.3 °C 29.83in /  1010hPa Calm     84% 0.00in /  0mm
05:44 33.7 °F /  0.9 °C 29.4 °F /  -1.4 °C 29.83in /  1010hPa Calm     84% 0.00in /  0mm
05:54 33.8 °F /  1 °C 29.8 °F /  -1.2 °C 29.84in /  1010.4hPa Calm     85% 0.00in /  0mm
05:59 33.7 °F /  0.9 °C 29.7 °F /  -1.3 °C 29.84in /  1010.4hPa Calm   4.0mph /  6.4km/h 85% 0.00in /  0mm
06:04 33.6 °F /  0.9 °C 29.6 °F /  -1.3 °C 29.84in /  1010.4hPa Calm   4.0mph /  6.4km/h 85% 0.00in /  0mm
06:09 33.6 °F /  0.9 °C 29.6 °F /  -1.3 °C 29.84in /  1010.4hPa Calm     85% 0.00in /  0mm
06:14 33.6 °F /  0.9 °C 29.6 °F /  -1.3 °C 29.84in /  1010.4hPa Calm     85% 0.00in /  0mm
06:19 33.4 °F /  0.8 °C 29.4 °F /  -1.4 °C 29.84in /  1010.4hPa Calm     85% 0.00in /  0mm
06:24 33.4 °F /  0.8 °C 29.7 °F /  -1.3 °C 29.84in /  1010.4hPa Calm     86% 0.00in /  0mm
06:29 33.6 °F /  0.9 °C 29.9 °F /  -1.2 °C 29.84in /  1010.4hPa Calm     86% 0.00in /  0mm
06:34 33.8 °F /  1 °C 30.1 °F /  -1.1 °C 29.84in /  1010.4hPa Calm     86% 0.00in /  0mm
06:44 33.9 °F /  1.1 °C 30.2 °F /  -1 °C 29.84in /  1010.4hPa Calm     86% 0.00in /  0mm
06:49 33.9 °F /  1.1 °C 30.4 °F /  -0.9 °C 29.84in /  1010.4hPa Calm   1.0mph /  1.6km/h 87% 0.00in /  0mm
06:54 33.9 °F /  1.1 °C 30.4 °F /  -0.9 °C 29.84in /  1010.4hPa Calm   2.0mph /  3.2km/h 87% 0.00in /  0mm
06:59 34.4 °F /  1.3 °C 30.9 °F /  -0.6 °C 29.84in /  1010.4hPa Calm   2.0mph /  3.2km/h 87% 0.00in /  0mm
07:04 34.8 °F /  1.6 °C 31.3 °F /  -0.4 °C 29.84in /  1010.4hPa Calm     87% 0.00in /  0mm
07:09 35.1 °F /  1.7 °C 31.6 °F /  -0.2 °C 29.84in /  1010.4hPa Calm     87% 0.00in /  0mm
07:14 35.4 °F /  1.9 °C 31.9 °F /  -0.1 °C 29.84in /  1010.4hPa Calm     87% 0.00in /  0mm
07:19 36.0 °F /  2.2 °C 32.2 °F /  0.1 °C 29.84in /  1010.4hPa Calm   5.0mph /  8km/h 86% 0.00in /  0mm
07:24 36.9 °F /  2.7 °C 33.1 °F /  0.6 °C 29.84in /  1010.4hPa Calm   5.0mph /  8km/h 86% 0.00in /  0mm
07:29 38.0 °F /  3.3 °C 33.6 °F /  0.9 °C 29.84in /  1010.4hPa Calm   3.0mph /  4.8km/h 84% 0.00in /  0mm
07:34 38.9 °F /  3.8 °C 33.6 °F /  0.9 °C 29.84in /  1010.4hPa Calm   5.0mph /  8km/h 81% 0.00in /  0mm
07:39 39.6 °F /  4.2 °C 33.6 °F /  0.9 °C 29.84in /  1010.4hPa SW 2.0mph /  3.2km/h 8.0mph /  12.9km/h 79% 0.00in /  0mm
07:44 40.1 °F /  4.5 °C 33.1 °F /  0.6 °C 29.84in /  1010.4hPa SSW 5.0mph /  8km/h 8.0mph /  12.9km/h 76% 0.00in /  0mm
07:49 40.6 °F /  4.8 °C 33.6 °F /  0.9 °C 29.84in /  1010.4hPa SSW 2.0mph /  3.2km/h 9.0mph /  14.5km/h 76% 0.00in /  0mm
07:54 41.0 °F /  5 °C 33.7 °F /  0.9 °C 29.84in /  1010.4hPa SSW 2.0mph /  3.2km/h 9.0mph /  14.5km/h 75% 0.00in /  0mm
07:59 41.3 °F /  5.2 °C 33.6 °F /  0.9 °C 29.84in /  1010.4hPa Calm   7.0mph /  11.3km/h 74% 0.00in /  0mm
08:04 41.9 °F /  5.5 °C 33.9 °F /  1.1 °C 29.84in /  1010.4hPa SW 1.0mph /  1.6km/h 7.0mph /  11.3km/h 73% 0.00in /  0mm
08:09 42.3 °F /  5.7 °C 34.3 °F /  1.3 °C 29.84in /  1010.4hPa Calm   5.0mph /  8km/h 73% 0.00in /  0mm
08:14 42.8 °F /  6 °C 35.8 °F /  2.1 °C 29.84in /  1010.4hPa SW 3.0mph /  4.8km/h 8.0mph /  12.9km/h 76% 0.00in /  0mm
08:19 42.6 °F /  5.9 °C 33.5 °F /  0.8 °C 29.85in /  1010.7hPa WSW 3.0mph /  4.8km/h 9.0mph /  14.5km/h 70% 0.00in /  0mm
08:24 42.7 °F /  5.9 °C 34.0 °F /  1.1 °C 29.85in /  1010.7hPa SW 2.0mph /  3.2km/h 10.0mph /  16.1km/h 71% 0.00in /  0mm
08:29 42.7 °F /  5.9 °C 34.0 °F /  1.1 °C 29.85in /  1010.7hPa SW 5.0mph /  8km/h 10.0mph /  16.1km/h 71% 0.00in /  0mm
08:39 42.7 °F /  5.9 °C 33.6 °F /  0.9 °C 29.85in /  1010.7hPa SSW 2.0mph /  3.2km/h 9.0mph /  14.5km/h 70% 0.00in /  0mm
08:44 42.6 °F /  5.9 °C 32.8 °F /  0.4 °C 29.85in /  1010.7hPa SSW 6.0mph /  9.7km/h 10.0mph /  16.1km/h 68% 0.00in /  0mm
08:49 42.5 °F /  5.8 °C 33.4 °F /  0.8 °C 29.84in /  1010.4hPa SW 4.0mph /  6.4km/h 10.0mph /  16.1km/h 70% 0.00in /  0mm
08:54 42.5 °F /  5.8 °C 33.4 °F /  0.8 °C 29.84in /  1010.4hPa SSW 3.0mph /  4.8km/h 9.0mph /  14.5km/h 70% 0.00in /  0mm
08:59 42.5 °F /  5.8 °C 33.1 °F /  0.6 °C 29.84in /  1010.4hPa SW 4.0mph /  6.4km/h 8.0mph /  12.9km/h 69% 0.00in /  0mm
09:04 42.5 °F /  5.8 °C 33.1 °F /  0.6 °C 29.84in /  1010.4hPa SW 4.0mph /  6.4km/h 9.0mph /  14.5km/h 69% 0.00in /  0mm
09:09 42.7 °F /  5.9 °C 34.0 °F /  1.1 °C 29.84in /  1010.4hPa Calm   9.0mph /  14.5km/h 71% 0.00in /  0mm
09:15 43.0 °F /  6.1 °C 34.2 °F /  1.2 °C 29.84in /  1010.4hPa SSW 1.0mph /  1.6km/h 7.0mph /  11.3km/h 71% 0.00in /  0mm
09:24 44.1 °F /  6.7 °C 34.6 °F /  1.4 °C 29.84in /  1010.4hPa SSW 2.0mph /  3.2km/h 7.0mph /  11.3km/h 69% 0.00in /  0mm
09:30 44.7 °F /  7.1 °C 34.8 °F /  1.6 °C 29.84in /  1010.4hPa South 1.0mph /  1.6km/h 7.0mph /  11.3km/h 68% 0.00in /  0mm
09:40 44.9 °F /  7.2 °C 34.2 °F /  1.2 °C 29.84in /  1010.4hPa South 1.0mph /  1.6km/h 10.0mph /  16.1km/h 66% 0.00in /  0mm
09:49 45.6 °F /  7.6 °C 33.7 °F /  0.9 °C 29.83in /  1010hPa SSW 6.0mph /  9.7km/h 10.0mph /  16.1km/h 63% 0.00in /  0mm
09:54 45.5 °F /  7.5 °C 33.2 °F /  0.7 °C 29.84in /  1010.4hPa SW 6.0mph /  9.7km/h 12.0mph /  19.3km/h 62% 0.00in /  0mm
09:59 45.5 °F /  7.5 °C 33.6 °F /  0.9 °C 29.84in /  1010.4hPa SW 6.0mph /  9.7km/h 16.0mph /  25.7km/h 63% 0.00in /  0mm
10:04 45.8 °F /  7.7 °C 33.9 °F /  1.1 °C 29.83in /  1010hPa SW 5.0mph /  8km/h 16.0mph /  25.7km/h 63% 0.00in /  0mm
10:09 45.8 °F /  7.7 °C 33.5 °F /  0.8 °C 29.83in /  1010hPa SSW 4.0mph /  6.4km/h 13.0mph /  20.9km/h 62% 0.00in /  0mm
10:14 46.0 °F /  7.8 °C 33.7 °F /  0.9 °C 29.83in /  1010hPa SSW 4.0mph /  6.4km/h 13.0mph /  20.9km/h 62% 0.00in /  0mm
10:19 46.6 °F /  8.1 °C 33.5 °F /  0.8 °C 29.83in /  1010hPa SSW 4.0mph /  6.4km/h 14.0mph /  22.5km/h 60% 0.00in /  0mm
10:25 47.4 °F /  8.6 °C 33.8 °F /  1 °C 29.83in /  1010hPa SSW 4.0mph /  6.4km/h 16.0mph /  25.7km/h 59% 0.00in /  0mm
10:34 47.8 °F /  8.8 °C 34.2 °F /  1.2 °C 29.82in /  1009.7hPa SW 2.0mph /  3.2km/h 16.0mph /  25.7km/h 59% 0.00in /  0mm
10:39 47.8 °F /  8.8 °C 33.7 °F /  0.9 °C 29.82in /  1009.7hPa SW 2.0mph /  3.2km/h 14.0mph /  22.5km/h 58% 0.00in /  0mm
10:44 48.2 °F /  9 °C 34.1 °F /  1.2 °C 29.82in /  1009.7hPa WSW 4.0mph /  6.4km/h 14.0mph /  22.5km/h 58% 0.00in /  0mm
10:49 48.2 °F /  9 °C 34.1 °F /  1.2 °C 29.82in /  1009.7hPa SSW 6.0mph /  9.7km/h 15.0mph /  24.1km/h 58% 0.00in /  0mm
10:55 48.2 °F /  9 °C 33.7 °F /  0.9 °C 29.81in /  1009.4hPa SSW 6.0mph /  9.7km/h 15.0mph /  24.1km/h 57% 0.00in /  0mm
11:04 48.3 °F /  9.1 °C 34.2 °F /  1.2 °C 29.81in /  1009.4hPa SSW 4.0mph /  6.4km/h 15.0mph /  24.1km/h 58% 0.00in /  0mm
11:09 48.8 °F /  9.3 °C 32.4 °F /  0.2 °C 29.80in /  1009hPa SW 9.0mph /  14.5km/h 15.0mph /  24.1km/h 53% 0.00in /  0mm
11:14 48.6 °F /  9.2 °C 32.2 °F /  0.1 °C 29.80in /  1009hPa SW 5.0mph /  8km/h 19.0mph /  30.6km/h 53% 0.00in /  0mm
11:19 48.9 °F /  9.4 °C 32.5 °F /  0.3 °C 29.80in /  1009hPa SW 5.0mph /  8km/h 19.0mph /  30.6km/h 53% 0.00in /  0mm
11:24 49.5 °F /  9.7 °C 33.1 °F /  0.6 °C 29.80in /  1009hPa SSW 5.0mph /  8km/h 14.0mph /  22.5km/h 53% 0.00in /  0mm
11:29 50.0 °F /  10 °C 31.6 °F /  -0.2 °C 29.80in /  1009hPa SW 6.0mph /  9.7km/h 12.0mph /  19.3km/h 49% 0.00in /  0mm
11:34 50.0 °F /  10 °C 32.6 °F /  0.3 °C 29.80in /  1009hPa SW 5.0mph /  8km/h 13.0mph /  20.9km/h 51% 0.00in /  0mm
11:39 49.6 °F /  9.8 °C 31.7 °F /  -0.2 °C 29.79in /  1008.7hPa SW 5.0mph /  8km/h 13.0mph /  20.9km/h 50% 0.00in /  0mm
11:44 50.4 °F /  10.2 °C 33.0 °F /  0.6 °C 29.78in /  1008.4hPa SSW 8.0mph /  12.9km/h 12.0mph /  19.3km/h 51% 0.00in /  0mm
11:49 51.0 °F /  10.6 °C 33.0 °F /  0.6 °C 29.78in /  1008.4hPa SW 9.0mph /  14.5km/h 16.0mph /  25.7km/h 50% 0.00in /  0mm
11:54 51.0 °F /  10.6 °C 31.0 °F /  -0.6 °C 29.78in /  1008.4hPa SSW 8.0mph /  12.9km/h 18.0mph /  29km/h 46% 0.00in /  0mm
12:04 51.3 °F /  10.7 °C 33.3 °F /  0.7 °C 29.77in /  1008hPa SSW 5.0mph /  8km/h 12.0mph /  19.3km/h 50% 0.00in /  0mm
12:09 51.5 °F /  10.8 °C 31.4 °F /  -0.3 °C 29.77in /  1008hPa SSW 5.0mph /  8km/h 11.0mph /  17.7km/h 46% 0.00in /  0mm
12:14 51.6 °F /  10.9 °C 32.0 °F /  0 °C 29.77in /  1008hPa Calm   10.0mph /  16.1km/h 47% 0.00in /  0mm
12:19 52.3 °F /  11.3 °C 32.1 °F /  0.1 °C 29.76in /  1007.7hPa WSW 6.0mph /  9.7km/h 11.0mph /  17.7km/h 46% 0.00in /  0mm
12:29 52.4 °F /  11.3 °C 31.7 °F /  -0.2 °C 29.76in /  1007.7hPa SW 4.0mph /  6.4km/h 14.0mph /  22.5km/h 45% 0.00in /  0mm
12:39 52.8 °F /  11.6 °C 32.1 °F /  0.1 °C 29.75in /  1007.3hPa SW 3.0mph /  4.8km/h 13.0mph /  20.9km/h 45% 0.00in /  0mm
12:44 53.5 °F /  11.9 °C 31.6 °F /  -0.2 °C 29.75in /  1007.3hPa SW 5.0mph /  8km/h 13.0mph /  20.9km/h 43% 0.00in /  0mm
12:49 53.9 °F /  12.2 °C 33.1 °F /  0.6 °C 29.74in /  1007hPa SW 4.0mph /  6.4km/h 15.0mph /  24.1km/h 45% 0.00in /  0mm
12:54 53.7 °F /  12.1 °C 30.6 °F /  -0.8 °C 29.74in /  1007hPa SSW 5.0mph /  8km/h 15.0mph /  24.1km/h 41% 0.00in /  0mm
12:59 54.1 °F /  12.3 °C 31.5 °F /  -0.3 °C 29.73in /  1006.7hPa SW 4.0mph /  6.4km/h 12.0mph /  19.3km/h 42% 0.00in /  0mm
13:04 54.5 °F /  12.5 °C 30.7 °F /  -0.7 °C 29.73in /  1006.7hPa WSW 4.0mph /  6.4km/h 16.0mph /  25.7km/h 40% 0.00in /  0mm
13:09 54.1 °F /  12.3 °C 30.3 °F /  -0.9 °C 29.73in /  1006.7hPa SSW 4.0mph /  6.4km/h 16.0mph /  25.7km/h 40% 0.00in /  0mm
13:14 54.5 °F /  12.5 °C 31.3 °F /  -0.4 °C 29.72in /  1006.3hPa South 2.0mph /  3.2km/h 14.0mph /  22.5km/h 41% 0.00in /  0mm
13:19 54.9 °F /  12.7 °C 31.6 °F /  -0.2 °C 29.72in /  1006.3hPa SW 2.0mph /  3.2km/h 11.0mph /  17.7km/h 41% 0.00in /  0mm
13:24 55.1 °F /  12.8 °C 31.2 °F /  -0.4 °C 29.71in /  1006hPa SSW 1.0mph /  1.6km/h 7.0mph /  11.3km/h 40% 0.00in /  0mm
13:29 55.3 °F /  12.9 °C 31.4 °F /  -0.3 °C 29.70in /  1005.6hPa WSW 2.0mph /  3.2km/h 6.0mph /  9.7km/h 40% 0.00in /  0mm
13:34 54.9 °F /  12.7 °C 30.4 °F /  -0.9 °C 29.70in /  1005.6hPa South 3.0mph /  4.8km/h 12.0mph /  19.3km/h 39% 0.00in /  0mm
13:39 54.3 °F /  12.4 °C 28.6 °F /  -1.9 °C 29.70in /  1005.6hPa SSW 3.0mph /  4.8km/h 12.0mph /  19.3km/h 37% 0.00in /  0mm
13:44 54.0 °F /  12.2 °C 29.6 °F /  -1.3 °C 29.70in /  1005.6hPa SSW 2.0mph /  3.2km/h 9.0mph /  14.5km/h 39% 0.00in /  0mm
13:49 54.2 °F /  12.3 °C 28.5 °F /  -1.9 °C 29.70in /  1005.6hPa SW 3.0mph /  4.8km/h 9.0mph /  14.5km/h 37% 0.00in /  0mm
13:54 54.5 °F /  12.5 °C 28.8 °F /  -1.8 °C 29.69in /  1005.3hPa SSW 4.0mph /  6.4km/h 10.0mph /  16.1km/h 37% 0.00in /  0mm
13:59 54.6 °F /  12.6 °C 28.9 °F /  -1.7 °C 29.69in /  1005.3hPa SSW 1.0mph /  1.6km/h 10.0mph /  16.1km/h 37% 0.00in /  0mm
14:04 55.0 °F /  12.8 °C 28.5 °F /  -1.9 °C 29.68in /  1005hPa SW 1.0mph /  1.6km/h 8.0mph /  12.9km/h 36% 0.00in /  0mm
14:09 55.0 °F /  12.8 °C 27.9 °F /  -2.3 °C 29.68in /  1005hPa SW 1.0mph /  1.6km/h 8.0mph /  12.9km/h 35% 0.00in /  0mm
14:14 54.9 °F /  12.7 °C 27.8 °F /  -2.3 °C 29.68in /  1005hPa SSW 2.0mph /  3.2km/h 9.0mph /  14.5km/h 35% 0.00in /  0mm
14:19 54.8 °F /  12.7 °C 29.0 °F /  -1.7 °C 29.67in /  1004.6hPa SW 1.0mph /  1.6km/h 9.0mph /  14.5km/h 37% 0.00in /  0mm
14:24 54.8 °F /  12.7 °C 28.4 °F /  -2 °C 29.67in /  1004.6hPa SSW 1.0mph /  1.6km/h 7.0mph /  11.3km/h 36% 0.00in /  0mm
14:29 54.6 °F /  12.6 °C 27.5 °F /  -2.5 °C 29.67in /  1004.6hPa SW 2.0mph /  3.2km/h 7.0mph /  11.3km/h 35% 0.00in /  0mm
14:34 54.7 °F /  12.6 °C 28.3 °F /  -2.1 °C 29.67in /  1004.6hPa SW 1.0mph /  1.6km/h 7.0mph /  11.3km/h 36% 0.00in /  0mm
14:39 55.0 °F /  12.8 °C 27.9 °F /  -2.3 °C 29.67in /  1004.6hPa SSW 6.0mph /  9.7km/h 10.0mph /  16.1km/h 35% 0.00in /  0mm
14:44 54.8 °F /  12.7 °C 29.0 °F /  -1.7 °C 29.66in /  1004.3hPa SSW 1.0mph /  1.6km/h 10.0mph /  16.1km/h 37% 0.00in /  0mm
14:49 55.0 °F /  12.8 °C 30.5 °F /  -0.8 °C 29.67in /  1004.6hPa SW 1.0mph /  1.6km/h 9.0mph /  14.5km/h 39% 0.00in /  0mm
14:54 55.0 °F /  12.8 °C 29.2 °F /  -1.6 °C 29.66in /  1004.3hPa SW 3.0mph /  4.8km/h 7.0mph /  11.3km/h 37% 0.00in /  0mm
14:59 55.0 °F /  12.8 °C 29.2 °F /  -1.6 °C 29.66in /  1004.3hPa SW 1.0mph /  1.6km/h 8.0mph /  12.9km/h 37% 0.00in /  0mm
15:04 54.6 °F /  12.6 °C 28.2 °F /  -2.1 °C 29.66in /  1004.3hPa SW 6.0mph /  9.7km/h 12.0mph /  19.3km/h 36% 0.00in /  0mm
15:09 54.2 °F /  12.3 °C 29.1 °F /  -1.6 °C 29.66in /  1004.3hPa Calm   12.0mph /  19.3km/h 38% 0.00in /  0mm
15:14 54.0 °F /  12.2 °C 29.0 °F /  -1.7 °C 29.66in /  1004.3hPa South 3.0mph /  4.8km/h 9.0mph /  14.5km/h 38% 0.00in /  0mm
15:19 53.6 °F /  12 °C 28.6 °F /  -1.9 °C 29.66in /  1004.3hPa SSW 5.0mph /  8km/h 11.0mph /  17.7km/h 38% 0.00in /  0mm
15:24 53.3 °F /  11.8 °C 29.6 °F /  -1.3 °C 29.65in /  1003.9hPa SW 2.0mph /  3.2km/h 11.0mph /  17.7km/h 40% 0.00in /  0mm
15:29 53.2 °F /  11.8 °C 28.9 °F /  -1.7 °C 29.65in /  1003.9hPa SW 6.0mph /  9.7km/h 11.0mph /  17.7km/h 39% 0.00in /  0mm
15:34 53.1 °F /  11.7 °C 29.4 °F /  -1.4 °C 29.65in /  1003.9hPa SSW 3.0mph /  4.8km/h 11.0mph /  17.7km/h 40% 0.00in /  0mm
15:44 52.9 °F /  11.6 °C 30.4 °F /  -0.9 °C 29.65in /  1003.9hPa SW 2.0mph /  3.2km/h 10.0mph /  16.1km/h 42% 0.00in /  0mm
15:49 52.7 °F /  11.5 °C 30.3 °F /  -0.9 °C 29.65in /  1003.9hPa Calm   10.0mph /  16.1km/h 42% 0.00in /  0mm
15:54 52.6 °F /  11.4 °C 31.3 °F /  -0.4 °C 29.65in /  1003.9hPa SW 5.0mph /  8km/h 9.0mph /  14.5km/h 44% 0.00in /  0mm
15:59 52.5 °F /  11.4 °C 31.2 °F /  -0.4 °C 29.65in /  1003.9hPa SW 4.0mph /  6.4km/h 10.0mph /  16.1km/h 44% 0.00in /  0mm
16:04 52.1 °F /  11.2 °C 32.5 °F /  0.3 °C 29.64in /  1003.6hPa SSW 2.0mph /  3.2km/h 10.0mph /  16.1km/h 47% 0.00in /  0mm
16:09 51.8 °F /  11 °C 32.2 °F /  0.1 °C 29.64in /  1003.6hPa Calm   9.0mph /  14.5km/h 47% 0.00in /  0mm
16:14 51.6 °F /  10.9 °C 33.1 °F /  0.6 °C 29.64in /  1003.6hPa SW 4.0mph /  6.4km/h 14.0mph /  22.5km/h 49% 0.00in /  0mm
16:19 51.6 °F /  10.9 °C 34.6 °F /  1.4 °C 29.64in /  1003.6hPa SSW 11.0mph /  17.7km/h 19.0mph /  30.6km/h 52% 0.00in /  0mm
16:24 51.2 °F /  10.7 °C 36.0 °F /  2.2 °C 29.64in /  1003.6hPa SW 5.0mph /  8km/h 19.0mph /  30.6km/h 56% 0.00in /  0mm
16:29 50.4 °F /  10.2 °C 37.5 °F /  3.1 °C 29.63in /  1003.3hPa SSW 7.0mph /  11.3km/h 18.0mph /  29km/h 61% 0.00in /  0mm
16:39 49.7 °F /  9.8 °C 36.8 °F /  2.7 °C 29.62in /  1002.9hPa SSW 4.0mph /  6.4km/h 13.0mph /  20.9km/h 61% 0.00in /  0mm
16:44 49.8 °F /  9.9 °C 36.9 °F /  2.7 °C 29.61in /  1002.6hPa SSW 5.0mph /  8km/h 16.0mph /  25.7km/h 61% 0.00in /  0mm
16:49 49.7 °F /  9.8 °C 37.2 °F /  2.9 °C 29.61in /  1002.6hPa SSW 6.0mph /  9.7km/h 16.0mph /  25.7km/h 62% 0.00in /  0mm
16:54 49.2 °F /  9.6 °C 37.9 °F /  3.3 °C 29.61in /  1002.6hPa SSW 5.0mph /  8km/h 14.0mph /  22.5km/h 65% 0.00in /  0mm
16:59 48.7 °F /  9.3 °C 38.6 °F /  3.7 °C 29.60in /  1002.3hPa SSW 3.0mph /  4.8km/h 14.0mph /  22.5km/h 68% 0.00in /  0mm
17:04 48.0 °F /  8.9 °C 38.7 °F /  3.7 °C 29.60in /  1002.3hPa SSW 3.0mph /  4.8km/h 11.0mph /  17.7km/h 70% 0.01in /  0.3mm
17:09 47.4 °F /  8.6 °C 39.2 °F /  4 °C 29.60in /  1002.3hPa SSW 3.0mph /  4.8km/h 10.0mph /  16.1km/h 73% 0.01in /  0.3mm
17:14 46.9 °F /  8.3 °C 39.1 °F /  3.9 °C 29.60in /  1002.3hPa SSW 1.0mph /  1.6km/h 7.0mph /  11.3km/h 74% 0.01in /  0.3mm
17:19 46.7 °F /  8.2 °C 39.2 °F /  4 °C 29.59in /  1001.9hPa South 1.0mph /  1.6km/h 9.0mph /  14.5km/h 75% 0.01in /  0.3mm
17:24 46.7 °F /  8.2 °C 39.2 °F /  4 °C 29.59in /  1001.9hPa South 3.0mph /  4.8km/h 9.0mph /  14.5km/h 75% 0.01in /  0.3mm
17:29 46.7 °F /  8.2 °C 39.2 °F /  4 °C 29.59in /  1001.9hPa Calm   8.0mph /  12.9km/h 75% 0.01in /  0.3mm
17:34 46.7 °F /  8.2 °C 39.2 °F /  4 °C 29.59in /  1001.9hPa Calm   6.0mph /  9.7km/h 75% 0.01in /  0.3mm
17:39 46.7 °F /  8.2 °C 39.5 °F /  4.2 °C 29.59in /  1001.9hPa Calm   5.0mph /  8km/h 76% 0.01in /  0.3mm
17:44 46.7 °F /  8.2 °C 39.5 °F /  4.2 °C 29.58in /  1001.6hPa Calm   4.0mph /  6.4km/h 76% 0.01in /  0.3mm
17:49 46.7 °F /  8.2 °C 39.5 °F /  4.2 °C 29.57in /  1001.2hPa Calm   4.0mph /  6.4km/h 76% 0.01in /  0.3mm
17:59 46.5 °F /  8.1 °C 39.7 °F /  4.3 °C 29.56in /  1000.9hPa Calm     77% 0.01in /  0.3mm
18:09 46.7 °F /  8.2 °C 39.5 °F /  4.2 °C 29.56in /  1000.9hPa South 1.0mph /  1.6km/h 4.0mph /  6.4km/h 76% 0.01in /  0.3mm
18:14 46.9 °F /  8.3 °C 39.7 °F /  4.3 °C 29.56in /  1000.9hPa Calm   4.0mph /  6.4km/h 76% 0.01in /  0.3mm
18:19 46.9 °F /  8.3 °C 40.4 °F /  4.7 °C 29.56in /  1000.9hPa Calm   3.0mph /  4.8km/h 78% 0.02in /  0.5mm
18:24 46.7 °F /  8.2 °C 40.9 °F /  4.9 °C 29.56in /  1000.9hPa Calm   3.0mph /  4.8km/h 80% 0.03in /  0.8mm
18:34 46.2 °F /  7.9 °C 40.7 °F /  4.8 °C 29.56in /  1000.9hPa Calm   1.0mph /  1.6km/h 81% 0.06in /  1.5mm
18:45 45.9 °F /  7.7 °C 41.0 °F /  5 °C 29.57in /  1001.2hPa Calm     83% 0.10in /  2.5mm
18:54 45.6 °F /  7.6 °C 41.0 °F /  5 °C 29.56in /  1000.9hPa Calm   2.0mph /  3.2km/h 84% 0.12in /  3mm
18:59 45.4 °F /  7.4 °C 41.2 °F /  5.1 °C 29.56in /  1000.9hPa Calm   2.0mph /  3.2km/h 85% 0.13in /  3.3mm
19:04 45.3 °F /  7.4 °C 41.4 °F /  5.2 °C 29.56in /  1000.9hPa Calm     86% 0.14in /  3.6mm
19:09 45.1 °F /  7.3 °C 41.2 °F /  5.1 °C 29.56in /  1000.9hPa Calm     86% 0.14in /  3.6mm
19:14 45.0 °F /  7.2 °C 41.4 °F /  5.2 °C 29.55in /  1000.6hPa Calm   1.0mph /  1.6km/h 87% 0.16in /  4.1mm
19:19 44.8 °F /  7.1 °C 41.2 °F /  5.1 °C 29.55in /  1000.6hPa Calm   1.0mph /  1.6km/h 87% 0.16in /  4.1mm
19:24 44.7 °F /  7.1 °C 41.1 °F /  5.1 °C 29.55in /  1000.6hPa Calm   4.0mph /  6.4km/h 87% 0.16in /  4.1mm
19:29 44.6 °F /  7 °C 41.3 °F /  5.2 °C 29.55in /  1000.6hPa Calm   4.0mph /  6.4km/h 88% 0.16in /  4.1mm
19:34 44.5 °F /  6.9 °C 41.2 °F /  5.1 °C 29.55in /  1000.6hPa Calm     88% 0.16in /  4.1mm
19:39 44.4 °F /  6.9 °C 41.1 °F /  5.1 °C 29.55in /  1000.6hPa Calm   5.0mph /  8km/h 88% 0.17in /  4.3mm
19:44 44.3 °F /  6.8 °C 41.0 °F /  5 °C 29.55in /  1000.6hPa Calm   5.0mph /  8km/h 88% 0.18in /  4.6mm
19:49 44.3 °F /  6.8 °C 41.3 °F /  5.2 °C 29.54in /  1000.2hPa Calm   1.0mph /  1.6km/h 89% 0.20in /  5.1mm
19:54 44.2 °F /  6.8 °C 41.2 °F /  5.1 °C 29.54in /  1000.2hPa Calm     89% 0.20in /  5.1mm
19:59 44.2 °F /  6.8 °C 41.2 °F /  5.1 °C 29.54in /  1000.2hPa Calm     89% 0.22in /  5.6mm
20:04 44.2 °F /  6.8 °C 41.2 °F /  5.1 °C 29.55in /  1000.6hPa South 1.0mph /  1.6km/h 5.0mph /  8km/h 89% 0.22in /  5.6mm
20:09 44.2 °F /  6.8 °C 41.5 °F /  5.3 °C 29.54in /  1000.2hPa Calm   5.0mph /  8km/h 90% 0.23in /  5.8mm
20:14 44.2 °F /  6.8 °C 41.5 °F /  5.3 °C 29.54in /  1000.2hPa Calm   4.0mph /  6.4km/h 90% 0.24in /  6.1mm
20:19 44.2 °F /  6.8 °C 41.5 °F /  5.3 °C 29.54in /  1000.2hPa Calm   5.0mph /  8km/h 90% 0.24in /  6.1mm
20:25 44.3 °F /  6.8 °C 41.6 °F /  5.3 °C 29.54in /  1000.2hPa Calm   5.0mph /  8km/h 90% 0.26in /  6.6mm
20:34 44.2 °F /  6.8 °C 41.5 °F /  5.3 °C 29.54in /  1000.2hPa SSW 3.0mph /  4.8km/h 7.0mph /  11.3km/h 90% 0.28in /  7.1mm
20:39 44.3 °F /  6.8 °C 41.8 °F /  5.4 °C 29.54in /  1000.2hPa SSW 1.0mph /  1.6km/h 7.0mph /  11.3km/h 91% 0.29in /  7.4mm
20:44 44.3 °F /  6.8 °C 41.8 °F /  5.4 °C 29.54in /  1000.2hPa Calm   7.0mph /  11.3km/h 91% 0.30in /  7.6mm
20:49 44.3 °F /  6.8 °C 41.8 °F /  5.4 °C 29.54in /  1000.2hPa Calm   3.0mph /  4.8km/h 91% 0.31in /  7.9mm
20:54 44.3 °F /  6.8 °C 41.8 °F /  5.4 °C 29.54in /  1000.2hPa SW 2.0mph /  3.2km/h 6.0mph /  9.7km/h 91% 0.32in /  8.1mm
20:59 44.3 °F /  6.8 °C 41.8 °F /  5.4 °C 29.54in /  1000.2hPa Calm   6.0mph /  9.7km/h 91% 0.32in /  8.1mm
21:04 44.3 °F /  6.8 °C 42.1 °F /  5.6 °C 29.55in /  1000.6hPa SW 1.0mph /  1.6km/h 4.0mph /  6.4km/h 92% 0.34in /  8.6mm
21:09 44.3 °F /  6.8 °C 42.1 °F /  5.6 °C 29.55in /  1000.6hPa Calm   5.0mph /  8km/h 92% 0.35in /  8.9mm
21:14 44.4 °F /  6.9 °C 42.2 °F /  5.7 °C 29.55in /  1000.6hPa Calm   5.0mph /  8km/h 92% 0.37in /  9.4mm
21:19 44.4 °F /  6.9 °C 42.2 °F /  5.7 °C 29.55in /  1000.6hPa SW 3.0mph /  4.8km/h 5.0mph /  8km/h 92% 0.38in /  9.7mm
21:24 44.4 °F /  6.9 °C 42.2 °F /  5.7 °C 29.55in /  1000.6hPa Calm   5.0mph /  8km/h 92% 0.39in /  9.9mm
21:34 44.4 °F /  6.9 °C 42.2 °F /  5.7 °C 29.55in /  1000.6hPa SW 2.0mph /  3.2km/h 7.0mph /  11.3km/h 92% 0.40in /  10.2mm
21:39 44.4 °F /  6.9 °C 42.2 °F /  5.7 °C 29.55in /  1000.6hPa South 3.0mph /  4.8km/h 7.0mph /  11.3km/h 92% 0.42in /  10.7mm
21:44 44.5 °F /  6.9 °C 42.3 °F /  5.7 °C 29.54in /  1000.2hPa South 4.0mph /  6.4km/h 8.0mph /  12.9km/h 92% 0.43in /  10.9mm
21:49 44.5 °F /  6.9 °C 42.6 °F /  5.9 °C 29.54in /  1000.2hPa SSW 2.0mph /  3.2km/h 8.0mph /  12.9km/h 93% 0.45in /  11.4mm
21:54 44.6 °F /  7 °C 42.7 °F /  5.9 °C 29.54in /  1000.2hPa SSW 4.0mph /  6.4km/h 8.0mph /  12.9km/h 93% 0.46in /  11.7mm
21:59 44.5 °F /  6.9 °C 42.6 °F /  5.9 °C 29.53in /  999.9hPa Calm   7.0mph /  11.3km/h 93% 0.47in /  11.9mm
22:04 44.5 °F /  6.9 °C 42.6 °F /  5.9 °C 29.53in /  999.9hPa SSW 1.0mph /  1.6km/h 7.0mph /  11.3km/h 93% 0.48in /  12.2mm
22:09 44.5 °F /  6.9 °C 42.6 °F /  5.9 °C 29.53in /  999.9hPa Calm   7.0mph /  11.3km/h 93% 0.49in /  12.4mm
22:14 44.6 °F /  7 °C 42.7 °F /  5.9 °C 29.53in /  999.9hPa SSW 2.0mph /  3.2km/h 7.0mph /  11.3km/h 93% 0.50in /  12.7mm
22:19 44.6 °F /  7 °C 42.7 °F /  5.9 °C 29.52in /  999.5hPa SSW 6.0mph /  9.7km/h 9.0mph /  14.5km/h 93% 0.50in /  12.7mm
22:24 44.7 °F /  7.1 °C 42.8 °F /  6 °C 29.53in /  999.9hPa South 4.0mph /  6.4km/h 9.0mph /  14.5km/h 93% 0.51in /  13mm
22:29 44.8 °F /  7.1 °C 42.9 °F /  6.1 °C 29.52in /  999.5hPa SSW 2.0mph /  3.2km/h 9.0mph /  14.5km/h 93% 0.52in /  13.2mm
22:34 44.8 °F /  7.1 °C 42.9 °F /  6.1 °C 29.52in /  999.5hPa South 4.0mph /  6.4km/h 8.0mph /  12.9km/h 93% 0.52in /  13.2mm
22:39 44.8 °F /  7.1 °C 42.9 °F /  6.1 °C 29.53in /  999.9hPa SSW 3.0mph /  4.8km/h 8.0mph /  12.9km/h 93% 0.54in /  13.7mm
22:44 44.8 °F /  7.1 °C 42.9 °F /  6.1 °C 29.52in /  999.5hPa SSW 3.0mph /  4.8km/h 8.0mph /  12.9km/h 93% 0.55in /  14mm
22:49 44.8 °F /  7.1 °C 43.2 °F /  6.2 °C 29.52in /  999.5hPa SSW 2.0mph /  3.2km/h 8.0mph /  12.9km/h 94% 0.56in /  14.2mm
22:54 44.9 °F /  7.2 °C 43.0 °F /  6.1 °C 29.51in /  999.2hPa SSW 2.0mph /  3.2km/h 8.0mph /  12.9km/h 93% 0.56in /  14.2mm
22:59 45.0 °F /  7.2 °C 43.4 °F /  6.3 °C 29.52in /  999.5hPa SSW 3.0mph /  4.8km/h 8.0mph /  12.9km/h 94% 0.57in /  14.5mm
23:04 45.0 °F /  7.2 °C 43.4 °F /  6.3 °C 29.51in /  999.2hPa SSW 3.0mph /  4.8km/h 8.0mph /  12.9km/h 94% 0.57in /  14.5mm
23:09 45.0 °F /  7.2 °C 43.4 °F /  6.3 °C 29.51in /  999.2hPa South 1.0mph /  1.6km/h 10.0mph /  16.1km/h 94% 0.57in /  14.5mm
23:14 45.0 °F /  7.2 °C 43.4 °F /  6.3 °C 29.51in /  999.2hPa SSW 1.0mph /  1.6km/h 10.0mph /  16.1km/h 94% 0.58in /  14.7mm
23:19 45.0 °F /  7.2 °C 43.4 °F /  6.3 °C 29.51in /  999.2hPa South 3.0mph /  4.8km/h 7.0mph /  11.3km/h 94% 0.58in /  14.7mm
23:24 45.0 °F /  7.2 °C 43.4 °F /  6.3 °C 29.50in /  998.9hPa South 2.0mph /  3.2km/h 7.0mph /  11.3km/h 94% 0.58in /  14.7mm
23:29 45.1 °F /  7.3 °C 43.5 °F /  6.4 °C 29.51in /  999.2hPa SSW 2.0mph /  3.2km/h 7.0mph /  11.3km/h 94% 0.58in /  14.7mm
23:34 45.1 °F /  7.3 °C 43.5 °F /  6.4 °C 29.51in /  999.2hPa SW 3.0mph /  4.8km/h 7.0mph /  11.3km/h 94% 0.58in /  14.7mm
23:39 45.1 °F /  7.3 °C 43.5 °F /  6.4 °C 29.50in /  998.9hPa Calm   6.0mph /  9.7km/h 94% 0.58in /  14.7mm
23:44 45.0 °F /  7.2 °C 43.4 °F /  6.3 °C 29.50in /  998.9hPa Calm   5.0mph /  8km/h 94% 0.58in /  14.7mm
23:49 45.0 °F /  7.2 °C 43.4 °F /  6.3 °C 29.50in /  998.9hPa SSW 1.0mph /  1.6km/h 5.0mph /  8km/h 94% 0.58in /  14.7mm
23:54 45.1 °F /  7.3 °C 43.5 °F /  6.4 °C 29.50in /  998.9hPa SW 1.0mph /  1.6km/h 6.0mph /  9.7km/h 94% 0.58in /  14.7mm
23:59 45.1 °F /  7.3 °C 43.5 °F /  6.4 °C 29.50in /  998.9hPa SSW 1.0mph /  1.6km/h 6.0mph /  9.7km/h 94% 0.59in /  15mm
Westford Weather
Compliments of Weather Underground

 
 
Current Radar Loop:

Copyright © WestfordWeather.net 2007-2014. All rights reserved.